Time;durP1;ratioP1;P1;durP2;ratioP2;P2;SDS_P1;SDS_P2;PMS_P1;PMS_P2;Temp;Humidity;BMP_temperature;BMP_pressure;BME280_temperature;BME280_humidity;BME280_pressure;Samples;Min_cycle;Max_cycle;Signal;HPM_P1;HPM_P2
2021/08/16 00:01:48;;;;;;;16.63;12.18;;;23.40;62.30;;;;;;5035969;28;20021;-61
2021/08/16 00:04:14;;;;;;;17.38;12.43;;;23.40;62.40;;;;;;5050441;28;20029;-61
2021/08/16 00:06:40;;;;;;;16.02;12.27;;;23.30;62.60;;;;;;5054888;28;20104;-61
2021/08/16 00:09:07;;;;;;;18.13;11.88;;;23.30;62.70;;;;;;5035546;28;20029;-61
2021/08/16 00:11:34;;;;;;;18.83;12.52;;;23.30;62.90;;;;;;5035129;28;20384;-61
2021/08/16 00:13:59;;;;;;;18.13;12.95;;;23.30;63.00;;;;;;5034539;28;20026;-61
2021/08/16 00:16:27;;;;;;;20.17;13.88;;;23.20;62.90;;;;;;5050862;28;20075;-61
2021/08/16 00:18:52;;;;;;;21.58;13.65;;;23.20;63.10;;;;;;5051099;28;20025;-61
2021/08/16 00:21:18;;;;;;;20.13;13.90;;;23.20;63.20;;;;;;5035660;28;20083;-61
2021/08/16 00:23:43;;;;;;;20.45;14.32;;;23.20;63.00;;;;;;5030415;28;20040;-61
2021/08/16 00:26:10;;;;;;;21.60;14.60;;;23.20;63.30;;;;;;5024229;28;20057;-61
2021/08/16 00:28:35;;;;;;;18.52;13.65;;;23.10;63.20;;;;;;5035302;28;20068;-61
2021/08/16 00:31:01;;;;;;;20.65;14.10;;;23.20;63.30;;;;;;5017427;28;20065;-61
2021/08/16 00:33:27;;;;;;;20.15;14.13;;;23.10;63.20;;;;;;5017722;28;20089;-61
2021/08/16 00:35:52;;;;;;;19.88;14.43;;;23.10;63.30;;;;;;5035399;28;20028;-61
2021/08/16 00:38:18;;;;;;;18.92;14.07;;;23.10;63.10;;;;;;5035264;28;20060;-61
2021/08/16 00:40:44;;;;;;;18.55;13.90;;;23.10;63.20;;;;;;5021008;28;20113;-61
2021/08/16 00:43:09;;;;;;;16.98;12.63;;;23.10;63.40;;;;;;5033700;28;20115;-61
2021/08/16 00:45:36;;;;;;;22.30;13.80;;;23.10;63.50;;;;;;5035414;28;20032;-63
2021/08/16 00:48:02;;;;;;;18.33;12.80;;;23.10;63.50;;;;;;5035156;28;20029;-63
2021/08/16 00:50:28;;;;;;;20.30;13.32;;;23.10;63.90;;;;;;5034959;28;20133;-63
2021/08/16 00:52:54;;;;;;;20.25;13.45;;;23.10;64.20;;;;;;5035682;28;20477;-63
2021/08/16 00:55:20;;;;;;;19.33;14.00;;;23.00;64.20;;;;;;5032258;28;20037;-63
2021/08/16 00:57:46;;;;;;;20.95;14.38;;;23.00;64.10;;;;;;5023809;28;20456;-63
2021/08/16 01:00:12;;;;;;;22.77;15.50;;;23.00;64.30;;;;;;5034719;28;20105;-63
2021/08/16 01:02:40;;;;;;;20.38;14.90;;;23.00;64.40;;;;;;5034733;28;20108;-63
2021/08/16 01:05:10;;;;;;;19.60;14.75;;;22.90;64.30;;;;;;5034585;28;20052;-63
2021/08/16 01:07:35;;;;;;;21.33;14.93;;;22.90;64.60;;;;;;5034768;28;20022;-63
2021/08/16 01:10:03;;;;;;;21.95;15.38;;;22.90;64.50;;;;;;5034568;28;20037;-63
2021/08/16 01:12:33;;;;;;;24.40;15.77;;;22.90;64.70;;;;;;5033584;28;20138;-63
2021/08/16 01:15:00;;;;;;;24.45;15.02;;;22.90;64.70;;;;;;5033437;28;20475;-61
2021/08/16 01:17:26;;;;;;;20.52;15.25;;;22.80;64.90;;;;;;5034551;28;20029;-63
2021/08/16 01:19:52;;;;;;;20.27;14.85;;;22.80;64.80;;;;;;5033310;28;20479;-63
2021/08/16 01:22:19;;;;;;;22.13;14.50;;;22.80;64.90;;;;;;5043703;28;20029;-63
2021/08/16 01:24:44;;;;;;;22.88;15.07;;;22.80;65.10;;;;;;5054459;28;20033;-63
2021/08/16 01:27:12;;;;;;;21.67;14.73;;;22.80;65.20;;;;;;5053882;28;20071;-63
2021/08/16 01:29:38;;;;;;;21.40;14.43;;;22.70;65.40;;;;;;5037567;28;20029;-63
2021/08/16 01:32:05;;;;;;;20.02;14.88;;;22.70;65.40;;;;;;5034859;28;20440;-63
2021/08/16 01:34:31;;;;;;;22.60;15.27;;;22.70;65.60;;;;;;5016416;28;20021;-61
2021/08/16 01:36:58;;;;;;;20.55;14.73;;;22.70;65.50;;;;;;5034235;28;20025;-63
2021/08/16 01:39:24;;;;;;;19.90;13.77;;;22.70;65.70;;;;;;5034210;28;20116;-63
2021/08/16 01:41:50;;;;;;;20.00;14.60;;;22.60;65.80;;;;;;5034033;28;20074;-63
2021/08/16 01:44:17;;;;;;;22.70;16.30;;;22.60;65.70;;;;;;5031814;28;20029;-63
2021/08/16 01:46:44;;;;;;;23.65;15.70;;;22.60;65.90;;;;;;5032506;28;20120;-63
2021/08/16 01:49:11;;;;;;;23.00;15.57;;;22.50;66.00;;;;;;5046416;28;20032;-63
2021/08/16 01:51:37;;;;;;;23.17;16.48;;;22.50;66.30;;;;;;5053816;28;20155;-63
2021/08/16 01:54:12;;;;;;;24.10;16.80;;;22.50;66.40;;;;;;5053862;28;20461;-63
2021/08/16 01:56:38;;;;;;;23.23;15.23;;;22.50;66.40;;;;;;5053762;28;20017;-63
2021/08/16 01:59:04;;;;;;;24.35;15.82;;;22.50;66.70;;;;;;5035730;28;20457;-63
2021/08/16 02:01:30;;;;;;;23.42;16.50;;;22.40;66.90;;;;;;5039248;28;20034;-63
2021/08/16 02:03:56;;;;;;;23.33;16.23;;;22.40;67.10;;;;;;5033099;28;20384;-61
2021/08/16 02:06:22;;;;;;;21.90;15.20;;;22.40;67.20;;;;;;5033544;28;20056;-62
2021/08/16 02:08:48;;;;;;;23.35;16.13;;;22.40;67.30;;;;;;5015897;28;20041;-63
2021/08/16 02:11:15;;;;;;;21.75;15.20;;;22.30;67.10;;;;;;5033747;28;20461;-63
2021/08/16 02:13:41;;;;;;;19.10;15.23;;;22.30;67.30;;;;;;5033532;28;20030;-63
2021/08/16 02:16:07;;;;;;;21.33;15.88;;;22.30;67.30;;;;;;5031139;28;20040;-62
2021/08/16 02:18:32;;;;;;;24.13;15.60;;;22.30;67.50;;;;;;5045183;28;20033;-63
2021/08/16 02:20:58;;;;;;;21.25;15.00;;;22.30;67.40;;;;;;5047827;28;20075;-63
2021/08/16 02:23:25;;;;;;;22.02;15.50;;;22.30;67.60;;;;;;5033195;28;20030;-63
2021/08/16 02:25:50;;;;;;;23.80;16.85;;;22.20;67.50;;;;;;5015844;28;20044;-63
2021/08/16 02:28:17;;;;;;;20.70;15.70;;;22.20;67.40;;;;;;5033018;28;20358;-63
2021/08/16 02:30:44;;;;;;;26.55;16.85;;;22.20;67.60;;;;;;5046127;28;20430;-62
2021/08/16 02:33:10;;;;;;;24.40;15.00;;;22.20;67.50;;;;;;5038358;28;20025;-62
2021/08/16 02:35:36;;;;;;;22.25;16.38;;;22.20;67.70;;;;;;5033206;28;20028;-62
2021/08/16 02:38:02;;;;;;;20.63;14.98;;;22.20;67.80;;;;;;5032777;28;20473;-62
2021/08/16 02:40:27;;;;;;;22.02;15.98;;;22.10;67.80;;;;;;5048677;28;20041;-62
2021/08/16 02:42:53;;;;;;;25.35;15.93;;;22.10;68.00;;;;;;5033265;28;20033;-63
2021/08/16 02:45:19;;;;;;;22.67;15.38;;;22.10;68.00;;;;;;5033299;28;20025;-63
2021/08/16 02:47:44;;;;;;;23.98;15.98;;;22.10;68.10;;;;;;5034533;28;20034;-63
2021/08/16 02:50:10;;;;;;;20.92;15.63;;;22.00;68.10;;;;;;5015123;28;20041;-63
2021/08/16 02:52:36;;;;;;;21.77;15.73;;;22.00;68.40;;;;;;5033150;28;20119;-62
2021/08/16 02:55:04;;;;;;;21.58;15.02;;;22.00;68.70;;;;;;5031520;28;20029;-62
2021/08/16 02:57:30;;;;;;;22.98;16.23;;;22.00;68.60;;;;;;5015307;28;20080;-63
2021/08/16 02:59:56;;;;;;;22.80;16.25;;;22.00;68.70;;;;;;5033070;28;20029;-62
2021/08/16 03:02:22;;;;;;;21.67;14.85;;;21.90;68.70;;;;;;5033121;28;20026;-62
2021/08/16 03:04:48;;;;;;;20.48;14.98;;;21.90;69.00;;;;;;5032492;28;20108;-63
2021/08/16 03:07:13;;;;;;;25.20;15.70;;;21.90;69.00;;;;;;5033032;28;20097;-63
2021/08/16 03:09:39;;;;;;;20.83;14.63;;;21.90;69.10;;;;;;5032885;28;20100;-62
2021/08/16 03:12:05;;;;;;;23.73;16.35;;;22.00;69.30;;;;;;5047757;28;20036;-63
2021/08/16 03:14:31;;;;;;;21.67;14.73;;;21.90;69.40;;;;;;5032984;28;20380;-62
2021/08/16 03:16:57;;;;;;;21.48;15.45;;;22.00;69.40;;;;;;5035057;28;20026;-63
2021/08/16 03:19:22;;;;;;;21.40;15.30;;;22.00;69.30;;;;;;5029670;28;20195;-62
2021/08/16 03:21:48;;;;;;;21.38;15.82;;;22.00;69.40;;;;;;5032846;28;20033;-62
2021/08/16 03:24:14;;;;;;;20.35;14.93;;;22.10;69.50;;;;;;5015097;28;20022;-63
2021/08/16 03:26:39;;;;;;;21.17;15.93;;;22.10;69.50;;;;;;5033829;28;20265;-62
2021/08/16 03:29:05;;;;;;;21.65;14.82;;;22.20;69.60;;;;;;5018717;28;20064;-63
2021/08/16 03:31:31;;;;;;;20.40;15.02;;;22.30;69.60;;;;;;5055924;28;20056;-63
2021/08/16 03:33:56;;;;;;;23.23;14.85;;;22.40;69.70;;;;;;5056617;28;20105;-63
2021/08/16 03:36:22;;;;;;;22.75;15.02;;;22.40;69.40;;;;;;5020089;28;20385;-63
2021/08/16 03:38:48;;;;;;;22.45;16.08;;;22.50;69.40;;;;;;5016764;28;20030;-63
2021/08/16 03:41:14;;;;;;;22.70;14.68;;;22.60;69.10;;;;;;5016629;28;20048;-63
2021/08/16 03:43:40;;;;;;;19.10;14.85;;;22.70;69.10;;;;;;5016762;28;20655;-63
2021/08/16 03:46:05;;;;;;;19.38;14.52;;;22.80;69.20;;;;;;5024788;28;20029;-63
2021/08/16 03:48:31;;;;;;;22.00;13.77;;;22.80;68.90;;;;;;5049846;28;20025;-63
2021/08/16 03:50:57;;;;;;;21.17;13.43;;;22.90;68.60;;;;;;5050024;28;20029;-63
2021/08/16 03:53:22;;;;;;;17.52;12.75;;;23.00;68.40;;;;;;5034653;28;20094;-63
2021/08/16 03:55:48;;;;;;;20.30;13.80;;;23.00;68.90;;;;;;5035376;28;20048;-63
2021/08/16 03:58:14;;;;;;;20.75;15.35;;;23.10;67.90;;;;;;5017809;28;20025;-63
2021/08/16 04:00:40;;;;;;;20.67;14.48;;;23.10;68.10;;;;;;5025880;28;20033;-63
2021/08/16 04:03:06;;;;;;;21.00;14.50;;;23.20;67.80;;;;;;5015416;28;20378;-63
2021/08/16 04:05:32;;;;;;;20.90;14.52;;;23.30;67.80;;;;;;5016205;28;20030;-61
2021/08/16 04:07:58;;;;;;;17.95;13.70;;;23.50;68.00;;;;;;5015984;28;20040;-61
2021/08/16 04:10:23;;;;;;;17.60;13.27;;;23.60;67.80;;;;;;5015739;28;20026;-61
2021/08/16 04:12:49;;;;;;;16.90;11.88;;;23.80;67.30;;;;;;5015489;28;20037;-61
2021/08/16 04:15:17;;;;;;;15.18;12.15;;;24.00;66.40;;;;;;5015884;28;20044;-61
2021/08/16 04:17:43;;;;;;;14.77;11.38;;;24.20;65.60;;;;;;5026524;28;20021;-61
2021/08/16 04:20:11;;;;;;;15.98;11.77;;;24.30;65.20;;;;;;5035625;28;20040;-61
2021/08/16 04:22:37;;;;;;;16.48;11.57;;;24.50;64.40;;;;;;5035672;28;20388;-61
2021/08/16 04:25:07;;;;;;;15.32;10.90;;;24.60;64.10;;;;;;5035523;28;20021;-61
2021/08/16 04:27:34;;;;;;;17.15;10.98;;;24.70;63.60;;;;;;5035612;28;20473;-61
2021/08/16 04:30:00;;;;;;;16.45;11.43;;;24.80;63.40;;;;;;5024340;28;20028;-61
2021/08/16 04:32:26;;;;;;;20.48;12.90;;;24.90;63.30;;;;;;5055342;28;20514;-61
2021/08/16 04:34:52;;;;;;;17.45;13.05;;;25.00;62.60;;;;;;5043883;28;20100;-63
2021/08/16 04:37:17;;;;;;;18.30;12.68;;;25.00;62.10;;;;;;5015306;28;20088;-63
2021/08/16 04:39:43;;;;;;;18.60;11.52;;;25.00;62.10;;;;;;5014926;28;20034;-63
2021/08/16 04:42:09;;;;;;;16.95;11.48;;;25.10;62.00;;;;;;5015533;28;20377;-63
2021/08/16 04:44:34;;;;;;;22.20;12.40;;;25.10;62.00;;;;;;5015409;28;20030;-63
2021/08/16 04:47:00;;;;;;;18.58;12.52;;;25.30;61.70;;;;;;5019640;28;20034;-63
2021/08/16 04:49:26;;;;;;;19.15;12.65;;;25.50;61.30;;;;;;5054914;28;20036;-63
2021/08/16 04:51:51;;;;;;;17.42;12.07;;;25.60;60.80;;;;;;5026788;28;20026;-63
2021/08/16 04:54:17;;;;;;;17.63;11.88;;;25.70;60.50;;;;;;5017174;28;20029;-61
2021/08/16 04:56:44;;;;;;;16.70;11.13;;;25.70;60.10;;;;;;5017375;28;20436;-62
2021/08/16 04:59:09;;;;;;;17.67;11.85;;;25.80;60.30;;;;;;5017073;28;20033;-63
2021/08/16 05:01:36;;;;;;;16.85;11.13;;;25.80;60.50;;;;;;5034995;28;20029;-63
2021/08/16 05:04:03;;;;;;;14.40;11.32;;;26.00;60.90;;;;;;5035020;28;20064;-63
2021/08/16 05:06:29;;;;;;;18.33;11.65;;;26.00;60.70;;;;;;5036946;28;20025;-61
2021/08/16 05:08:59;;;;;;;17.60;11.73;;;26.20;60.30;;;;;;5036152;28;20116;-61
2021/08/16 05:11:25;;;;;;;16.48;11.02;;;26.30;60.30;;;;;;5041802;28;20029;-61
2021/08/16 05:13:51;;;;;;;15.93;10.85;;;26.40;60.50;;;;;;5012915;28;20057;-61
2021/08/16 05:16:18;;;;;;;16.65;11.65;;;26.60;60.90;;;;;;5015621;28;20065;-61
2021/08/16 05:18:44;;;;;;;18.25;12.75;;;26.60;60.90;;;;;;5014134;28;20026;-61
2021/08/16 05:21:10;;;;;;;19.27;12.13;;;26.60;60.90;;;;;;5030423;28;20095;-61
2021/08/16 05:23:35;;;;;;;15.93;11.88;;;26.70;60.50;;;;;;5029042;28;20036;-61
2021/08/16 05:26:01;;;;;;;16.75;11.60;;;26.70;60.10;;;;;;5019998;28;20021;-61
2021/08/16 05:28:28;;;;;;;16.15;11.70;;;26.60;60.10;;;;;;5027780;28;20361;-61
2021/08/16 05:30:54;;;;;;;16.42;12.05;;;26.60;60.30;;;;;;5030123;28;20804;-61
2021/08/16 05:33:20;;;;;;;17.63;12.15;;;26.70;60.30;;;;;;5025009;28;20028;-61
2021/08/16 05:35:46;;;;;;;19.40;11.65;;;26.90;60.70;;;;;;5030822;28;20381;-62
2021/08/16 05:38:13;;;;;;;20.02;11.90;;;27.20;60.00;;;;;;5031984;28;20037;-61
2021/08/16 05:40:39;;;;;;;17.83;11.98;;;27.60;59.50;;;;;;5033038;28;20040;-61
2021/08/16 05:43:05;;;;;;;16.05;12.13;;;27.90;59.10;;;;;;5026186;28;20037;-60
2021/08/16 05:45:30;;;;;;;18.25;12.30;;;28.00;58.60;;;;;;5030227;28;20163;-61
2021/08/16 05:47:56;;;;;;;18.27;12.60;;;28.00;58.40;;;;;;5025377;28;20072;-60
2021/08/16 05:50:23;;;;;;;17.17;12.57;;;27.90;58.60;;;;;;5033144;28;20091;-59
2021/08/16 05:52:49;;;;;;;19.83;13.00;;;27.90;58.60;;;;;;5023861;28;20103;-60
2021/08/16 05:55:15;;;;;;;17.75;12.60;;;27.80;58.60;;;;;;5026161;28;20027;-60
2021/08/16 05:57:40;;;;;;;16.38;12.02;;;27.70;59.30;;;;;;5027649;28;20037;-57
2021/08/16 06:00:07;;;;;;;20.05;13.25;;;27.70;59.00;;;;;;5028718;28;20064;-61
2021/08/16 06:02:34;;;;;;;20.17;14.55;;;27.60;59.40;;;;;;5033698;28;20086;-61
2021/08/16 06:05:00;;;;;;;21.48;15.02;;;27.60;59.80;;;;;;5028085;28;20440;-60
2021/08/16 06:07:26;;;;;;;21.75;15.00;;;27.60;60.30;;;;;;5029391;28;20400;-61
2021/08/16 06:09:52;;;;;;;23.17;17.20;;;27.50;60.50;;;;;;5028765;28;20037;-61
2021/08/16 06:12:17;;;;;;;21.45;15.50;;;27.50;60.70;;;;;;5030469;28;20064;-62
2021/08/16 06:14:43;;;;;;;21.45;15.13;;;27.50;61.00;;;;;;5024035;28;20584;-61
2021/08/16 06:17:09;;;;;;;23.13;16.15;;;27.50;61.40;;;;;;5026710;28;20563;-62
2021/08/16 06:19:35;;;;;;;21.77;16.67;;;27.50;61.70;;;;;;5032525;28;20109;-62
2021/08/16 06:22:02;;;;;;;25.40;17.63;;;27.50;61.90;;;;;;5028879;28;20733;-61
2021/08/16 06:24:27;;;;;;;28.42;18.10;;;27.40;61.70;;;;;;5022721;28;20029;-64
2021/08/16 06:26:53;;;;;;;27.52;19.75;;;27.40;61.60;;;;;;5027715;28;20627;-64
2021/08/16 06:29:19;;;;;;;32.97;22.30;;;27.40;62.00;;;;;;5026580;28;20029;-61
2021/08/16 06:31:45;;;;;;;31.52;20.55;;;27.40;62.40;;;;;;5024000;28;20057;-62
2021/08/16 06:34:11;;;;;;;29.13;21.20;;;27.40;62.50;;;;;;5020496;28;20083;-61
2021/08/16 06:36:42;;;;;;;30.40;20.95;;;27.40;63.20;;;;;;5020131;28;20044;-63
2021/08/16 06:39:18;;;;;;;30.60;20.65;;;27.40;63.00;;;;;;5006917;28;20034;-63
2021/08/16 06:41:48;;;;;;;29.27;19.85;;;27.40;62.80;;;;;;5026027;28;20041;-61
2021/08/16 06:44:15;;;;;;;30.73;21.20;;;27.40;63.20;;;;;;5027308;28;20037;-62
2021/08/16 06:46:40;;;;;;;26.90;19.67;;;27.40;63.30;;;;;;5019520;28;20410;-64
2021/08/16 06:49:06;;;;;;;29.95;19.67;;;27.40;63.40;;;;;;5022349;28;20060;-62
2021/08/16 06:51:32;;;;;;;29.35;19.33;;;27.50;63.60;;;;;;5014581;28;20038;-62
2021/08/16 06:53:57;;;;;;;26.77;18.20;;;27.50;63.40;;;;;;5025749;28;20026;-61
2021/08/16 06:56:23;;;;;;;32.85;19.98;;;27.50;63.30;;;;;;5020684;28;20029;-63
2021/08/16 06:58:48;;;;;;;28.67;19.33;;;27.50;63.20;;;;;;5018299;28;20029;-63
2021/08/16 07:01:25;;;;;;;26.75;19.13;;;27.50;63.10;;;;;;5016393;28;20041;-64
2021/08/16 07:03:56;;;;;;;24.40;18.55;;;27.50;63.10;;;;;;5024347;28;20121;-63
2021/08/16 07:06:21;;;;;;;26.92;17.98;;;27.50;62.90;;;;;;5025352;28;20546;-64
2021/08/16 07:08:48;;;;;;;23.55;17.30;;;27.50;63.00;;;;;;5018701;28;20041;-64
2021/08/16 07:11:13;;;;;;;23.50;17.63;;;27.60;63.10;;;;;;5027509;28;20053;-67
2021/08/16 07:13:39;;;;;;;23.80;17.50;;;27.60;63.20;;;;;;5026314;28;20029;-64
2021/08/16 07:16:06;;;;;;;22.48;16.38;;;27.60;63.40;;;;;;5029298;28;20844;-66
2021/08/16 07:18:34;;;;;;;21.88;16.85;;;27.60;63.20;;;;;;5023340;28;20136;-63
2021/08/16 07:21:01;;;;;;;25.67;17.50;;;27.60;63.20;;;;;;5026403;28;20083;-63
2021/08/16 07:23:27;;;;;;;21.80;16.80;;;27.60;63.10;;;;;;5026337;28;20044;-64
2021/08/16 07:25:52;;;;;;;25.73;17.98;;;27.60;63.10;;;;;;5026947;28;20033;-63
2021/08/16 07:28:18;;;;;;;22.05;16.75;;;27.60;62.90;;;;;;5021928;28;20045;-66
2021/08/16 07:30:44;;;;;;;29.33;18.30;;;27.60;62.30;;;;;;5023432;28;20073;-66
2021/08/16 07:33:10;;;;;;;23.75;17.90;;;27.70;62.40;;;;;;5022332;28;20662;-63
2021/08/16 07:35:35;;;;;;;23.45;17.45;;;27.70;62.50;;;;;;5020470;28;20031;-64
2021/08/16 07:38:01;;;;;;;22.63;15.82;;;27.60;62.00;;;;;;5025638;28;20033;-64
2021/08/16 07:40:26;;;;;;;19.92;15.68;;;27.60;62.10;;;;;;5019957;28;20040;-65
2021/08/16 07:42:52;;;;;;;23.90;14.93;;;27.70;62.10;;;;;;5022504;28;20107;-64
2021/08/16 07:45:18;;;;;;;18.70;14.20;;;27.70;62.00;;;;;;5023664;28;20056;-65
2021/08/16 07:47:43;;;;;;;18.90;13.82;;;27.70;61.90;;;;;;5020821;28;20482;-65
2021/08/16 07:50:11;;;;;;;21.15;14.55;;;27.70;61.90;;;;;;5019706;28;20812;-64
2021/08/16 07:52:39;;;;;;;28.05;14.25;;;27.70;61.80;;;;;;5025528;28;20030;-63
2021/08/16 07:55:06;;;;;;;17.90;13.38;;;27.70;61.50;;;;;;5020666;28;20084;-64
2021/08/16 07:57:32;;;;;;;16.70;12.85;;;27.80;61.50;;;;;;5022001;28;20022;-63
2021/08/16 07:59:59;;;;;;;16.52;12.48;;;27.80;61.40;;;;;;5016788;28;20044;-63
2021/08/16 08:02:25;;;;;;;16.25;11.40;;;27.80;60.90;;;;;;5024261;28;20029;-64
2021/08/16 08:04:51;;;;;;;14.77;11.32;;;27.80;60.60;;;;;;5018684;28;20052;-63
2021/08/16 08:07:16;;;;;;;14.30;10.65;;;27.80;61.30;;;;;;5025406;28;20026;-63
2021/08/16 08:09:42;;;;;;;13.23;9.43;;;27.80;60.10;;;;;;5020730;28;20037;-62
2021/08/16 08:12:08;;;;;;;13.70;8.85;;;27.80;59.60;;;;;;5025320;28;20524;-62
2021/08/16 08:14:33;;;;;;;13.55;9.20;;;27.80;59.60;;;;;;5018752;28;21335;-64
2021/08/16 08:17:00;;;;;;;12.52;8.55;;;27.90;59.70;;;;;;5014312;28;20478;-63
2021/08/16 08:19:25;;;;;;;12.52;8.50;;;27.90;59.70;;;;;;5021063;28;20032;-63
2021/08/16 08:21:51;;;;;;;12.60;9.30;;;27.90;59.00;;;;;;5022895;28;20029;-63
2021/08/16 08:24:17;;;;;;;14.52;10.15;;;27.90;59.00;;;;;;5026122;28;20408;-63
2021/08/16 08:26:43;;;;;;;13.75;9.30;;;27.90;58.90;;;;;;5028650;28;20103;-64
2021/08/16 08:29:08;;;;;;;18.33;11.50;;;27.90;59.10;;;;;;5027791;28;20038;-63
2021/08/16 08:31:37;;;;;;;20.25;12.35;;;27.90;59.20;;;;;;5019342;28;20049;-64
2021/08/16 08:34:03;;;;;;;19.45;13.40;;;27.90;58.70;;;;;;5024966;28;20813;-64
2021/08/16 08:36:29;;;;;;;28.92;17.20;;;27.90;58.50;;;;;;5024689;28;20021;-63
2021/08/16 08:38:55;;;;;;;33.00;18.30;;;27.90;57.70;;;;;;5023664;28;20033;-65
2021/08/16 08:41:22;;;;;;;31.75;17.33;;;27.90;57.80;;;;;;5003175;28;20121;-64
2021/08/16 08:43:48;;;;;;;46.75;24.20;;;27.90;57.80;;;;;;5025956;28;20056;-64
2021/08/16 08:46:14;;;;;;;47.40;25.48;;;27.90;57.70;;;;;;5024981;28;20052;-63
2021/08/16 08:48:40;;;;;;;37.85;20.35;;;27.90;58.20;;;;;;5025998;28;20116;-63
2021/08/16 08:51:07;;;;;;;28.13;16.27;;;28.00;58.50;;;;;;5026400;28;20044;-61
2021/08/16 08:53:33;;;;;;;19.13;13.40;;;28.00;58.60;;;;;;5018836;28;20029;-64
2021/08/16 08:55:58;;;;;;;15.90;11.05;;;28.00;58.30;;;;;;5026268;28;20124;-64
2021/08/16 08:58:24;;;;;;;10.73;7.53;;;28.00;58.30;;;;;;5025450;28;20029;-64
2021/08/16 09:00:50;;;;;;;11.63;8.20;;;28.00;58.60;;;;;;5016453;28;20036;-63
2021/08/16 09:03:16;;;;;;;10.30;8.20;;;27.90;58.90;;;;;;5027591;28;20033;-63
2021/08/16 09:05:56;;;;;;;8.82;6.32;;;27.90;59.20;;;;;;5024820;28;20033;-64
2021/08/16 09:08:27;;;;;;;9.48;6.97;;;27.90;59.10;;;;;;5024740;28;20033;-64
2021/08/16 09:11:11;;;;;;;9.05;7.25;;;27.90;59.70;;;;;;5023098;28;20500;-63
2021/08/16 09:13:47;;;;;;;12.30;8.02;;;27.90;59.90;;;;;;5022726;28;20740;-63
2021/08/16 09:16:13;;;;;;;8.73;7.03;;;27.90;60.20;;;;;;5015900;28;20511;-63
2021/08/16 09:18:38;;;;;;;9.15;6.72;;;27.90;60.00;;;;;;5027645;28;20529;-63
2021/08/16 09:21:05;;;;;;;10.30;6.50;;;27.90;59.90;;;;;;5028885;28;20049;-63
2021/08/16 09:23:45;;;;;;;9.88;5.95;;;27.90;59.50;;;;;;5026665;28;20021;-63
2021/08/16 09:26:12;;;;;;;11.70;6.05;;;27.80;59.60;;;;;;5024819;28;20128;-63
2021/08/16 09:28:38;;;;;;;8.75;6.63;;;27.90;59.80;;;;;;5022173;28;20033;-63
2021/08/16 09:31:12;;;;;;;9.68;6.60;;;27.80;60.00;;;;;;5027627;28;20041;-63
2021/08/16 09:33:37;;;;;;;7.18;6.22;;;27.80;60.00;;;;;;5023583;28;20032;-63
2021/08/16 09:36:03;;;;;;;11.15;6.95;;;27.80;60.10;;;;;;5021334;28;20033;-63
2021/08/16 09:38:36;;;;;;;10.80;5.85;;;27.80;60.10;;;;;;5020093;28;20113;-63
2021/08/16 09:41:03;;;;;;;8.18;5.80;;;27.80;60.20;;;;;;5024876;28;20056;-63
2021/08/16 09:43:29;;;;;;;10.20;5.97;;;27.80;60.50;;;;;;5021673;28;20358;-63
2021/08/16 09:45:55;;;;;;;7.75;5.97;;;27.70;60.10;;;;;;5018573;28;20033;-63
2021/08/16 09:48:24;;;;;;;11.18;6.05;;;27.70;60.00;;;;;;5018696;28;20467;-63
2021/08/16 09:50:53;;;;;;;9.73;6.38;;;27.70;60.20;;;;;;5021573;28;20037;-63
2021/08/16 09:53:21;;;;;;;7.93;6.15;;;27.70;59.70;;;;;;5018882;28;20366;-63
2021/08/16 09:56:01;;;;;;;10.27;5.82;;;27.70;59.70;;;;;;5021634;28;20022;-63
2021/08/16 09:58:31;;;;;;;9.13;5.75;;;27.70;59.80;;;;;;5018808;28;20029;-67
2021/08/16 10:00:57;;;;;;;9.10;6.07;;;27.70;60.00;;;;;;5020706;28;20029;-64
2021/08/16 10:03:25;;;;;;;9.60;5.60;;;27.70;59.20;;;;;;5022868;28;20017;-64
2021/08/16 10:05:53;;;;;;;9.48;6.00;;;27.70;59.20;;;;;;5022490;28;20050;-64
2021/08/16 10:08:24;;;;;;;7.00;5.50;;;27.60;59.50;;;;;;5024048;28;20028;-65
2021/08/16 10:10:53;;;;;;;8.45;5.07;;;27.60;60.50;;;;;;5021572;28;20025;-65
2021/08/16 10:13:23;;;;;;;7.63;5.53;;;27.60;60.00;;;;;;5020389;28;20025;-64
2021/08/16 10:16:00;;;;;;;8.38;5.75;;;27.70;60.50;;;;;;5020853;28;20022;-64
2021/08/16 10:18:34;;;;;;;8.30;5.78;;;27.60;60.70;;;;;;5025829;28;20044;-65
2021/08/16 10:21:01;;;;;;;8.07;6.15;;;27.70;60.90;;;;;;5029808;28;20067;-63
2021/08/16 10:23:27;;;;;;;8.95;5.72;;;27.60;60.80;;;;;;5021135;28;20022;-63
2021/08/16 10:25:56;;;;;;;8.45;5.78;;;27.70;61.30;;;;;;5016899;28;20037;-63
2021/08/16 10:28:41;;;;;;;9.20;6.18;;;27.70;61.80;;;;;;5016772;28;20039;-64
2021/08/16 10:31:06;;;;;;;7.43;5.80;;;27.60;61.30;;;;;;5022179;28;20041;-64
2021/08/16 10:33:43;;;;;;;7.47;5.30;;;27.60;61.00;;;;;;5024460;28;20032;-64
2021/08/16 10:36:21;;;;;;;8.63;6.55;;;27.60;61.20;;;;;;5015738;28;20074;-66
2021/08/16 10:39:01;;;;;;;7.72;5.85;;;27.60;61.50;;;;;;5019494;28;20099;-64
2021/08/16 10:41:31;;;;;;;6.85;5.57;;;27.60;62.10;;;;;;5026827;28;20111;-64
2021/08/16 10:43:57;;;;;;;8.43;6.10;;;27.60;62.30;;;;;;5023198;28;20057;-63
2021/08/16 10:46:24;;;;;;;7.38;6.03;;;27.60;62.40;;;;;;5027592;28;20113;-64
2021/08/16 10:49:04;;;;;;;7.28;5.78;;;27.60;62.10;;;;;;5023152;28;20415;-64
2021/08/16 10:51:44;;;;;;;9.10;5.75;;;27.60;62.40;;;;;;5019420;28;20136;-63
2021/08/16 10:54:22;;;;;;;9.03;5.97;;;27.60;62.40;;;;;;5025817;28;20568;-65
2021/08/16 10:56:50;;;;;;;8.65;5.57;;;27.60;62.70;;;;;;5023123;28;20021;-64
2021/08/16 10:59:19;;;;;;;8.60;5.65;;;27.50;63.40;;;;;;5021396;28;20441;-64
2021/08/16 11:01:46;;;;;;;9.98;6.10;;;27.50;63.70;;;;;;5021771;28;20037;-63
2021/08/16 11:04:16;;;;;;;12.38;6.18;;;27.50;64.00;;;;;;5019204;28;20037;-64
2021/08/16 11:06:55;;;;;;;10.73;5.55;;;27.50;64.10;;;;;;5021855;28;20523;-64
2021/08/16 11:09:25;;;;;;;10.57;5.85;;;27.50;63.50;;;;;;5012196;28;20026;-63
2021/08/16 11:12:02;;;;;;;;;;;27.50;63.30;;;;;;5012145;28;20030;-63
2021/08/16 11:14:29;;;;;;;7.72;5.20;;;27.50;63.30;;;;;;5015633;28;19916;-64
2021/08/16 11:16:55;;;;;;;12.48;5.88;;;27.40;63.70;;;;;;5025832;28;20040;-65
2021/08/16 11:19:23;;;;;;;12.35;5.90;;;27.50;63.70;;;;;;5032254;28;20041;-65
2021/08/16 11:22:06;;;;;;;7.68;5.90;;;27.50;63.50;;;;;;5018638;28;20049;-64
2021/08/16 11:24:35;;;;;;;8.93;5.78;;;27.50;63.50;;;;;;5013434;28;20035;-64
2021/08/16 11:27:08;;;;;;;9.13;6.10;;;27.50;63.60;;;;;;5007798;28;20040;-64
2021/08/16 11:29:35;;;;;;;8.05;5.95;;;27.60;63.40;;;;;;5015488;28;20079;-64
2021/08/16 11:32:02;;;;;;;7.60;5.72;;;27.50;63.20;;;;;;5012733;28;20045;-62
2021/08/16 11:34:56;;;;;;;7.63;5.68;;;27.50;63.40;;;;;;5007474;28;20052;-63
2021/08/16 11:37:27;;;;;;;6.90;5.25;;;27.60;63.50;;;;;;5019097;28;20024;-64
2021/08/16 11:39:53;;;;;;;7.03;5.03;;;27.60;63.30;;;;;;5023852;28;20484;-63
2021/08/16 11:42:21;;;;;;;8.20;5.57;;;27.60;62.30;;;;;;5017535;28;20121;-67
2021/08/16 11:44:57;;;;;;;6.68;5.13;;;27.60;62.10;;;;;;5012381;28;20049;-63
2021/08/16 11:47:50;;;;;;;6.95;4.95;;;27.60;61.50;;;;;;5018711;28;20037;-65
2021/08/16 11:50:19;;;;;;;8.57;4.80;;;27.60;61.30;;;;;;5019013;28;20069;-63
2021/08/16 11:52:48;;;;;;;9.68;5.07;;;27.60;61.20;;;;;;5019289;28;20049;-64
2021/08/16 11:55:15;;;;;;;8.47;5.60;;;27.60;61.10;;;;;;5022383;28;20048;-66
2021/08/16 11:57:41;;;;;;;8.18;4.65;;;27.60;61.00;;;;;;5021894;28;20021;-62
2021/08/16 12:00:08;;;;;;;8.93;4.80;;;27.60;61.00;;;;;;5021294;28;20808;-64
2021/08/16 12:02:37;;;;;;;6.30;4.55;;;27.60;60.10;;;;;;5023754;28;20030;-66
2021/08/16 12:05:03;;;;;;;9.15;5.47;;;27.60;60.10;;;;;;5021267;28;20029;-65
2021/08/16 12:07:30;;;;;;;5.85;4.68;;;27.60;60.40;;;;;;5022240;28;20017;-64
2021/08/16 12:09:57;;;;;;;6.25;4.80;;;27.60;60.80;;;;;;5019774;28;20025;-64
2021/08/16 12:12:28;;;;;;;5.43;4.10;;;27.60;60.00;;;;;;5023750;28;20026;-63
2021/08/16 12:15:04;;;;;;;6.50;4.38;;;27.60;59.20;;;;;;5019831;28;20469;-64
2021/08/16 12:17:30;;;;;;;6.53;4.53;;;27.60;59.20;;;;;;5022755;28;20096;-65
2021/08/16 12:20:12;;;;;;;8.88;4.80;;;27.60;59.80;;;;;;5020517;28;20116;-64
2021/08/16 12:22:53;;;;;;;5.05;4.35;;;27.70;60.20;;;;;;5018563;28;20124;-65
2021/08/16 12:25:21;;;;;;;6.45;4.80;;;27.70;59.50;;;;;;5021960;28;20037;-64
2021/08/16 12:28:13;;;;;;;7.65;4.38;;;27.70;59.80;;;;;;5027346;28;20025;-64
2021/08/16 12:30:38;;;;;;;5.20;3.97;;;27.70;59.40;;;;;;5017806;28;20068;-64
2021/08/16 12:33:12;;;;;;;5.55;4.25;;;27.60;59.50;;;;;;5022750;28;20108;-63
2021/08/16 12:35:39;;;;;;;6.93;4.45;;;27.70;59.30;;;;;;5021225;28;20049;-65